Hartford, Michigan
Current Conditions -  °F | °C
As of 4:55 AM on Sunday 21 Dec 2014 (Local Time) from KLWA Reporting Station
Overcast Overcast  
Wind Chill:   Ceiling: 4400
Heat Index:   Visibility: 7mi
Dew Point: -3°   Wind: 3mph
Humidity: 84%   Direction: 170°S
Pressure: 30.25"   Gusts: NA
Location:  42.21°N, 86.17°W
Report Text: KLWA 210955Z AUTO 17003KT 7SM OVC044 00/M03 A3025 RMK AO2 T10021026
Loading
Personal Weather Stations






























Interactive Weather Map New forecast layout! Learn more

10-Day Weather Forecast

Advertisements
Track Severe Weather on mobile